createdAt,value
2019-05-02T00:00:14.013Z,99.90
2019-05-02T00:02:41.571Z,99.90
2019-05-02T00:05:09.115Z,99.90
2019-05-02T00:07:36.351Z,99.90
2019-05-02T00:10:05.095Z,99.90
2019-05-02T00:12:32.497Z,99.90
2019-05-02T00:15:01.822Z,99.90
2019-05-02T00:17:29.207Z,99.90
2019-05-02T00:19:56.453Z,99.90
2019-05-02T00:22:23.919Z,99.90
2019-05-02T00:24:51.512Z,99.90
2019-05-02T00:27:19.001Z,99.90
2019-05-02T00:29:46.383Z,99.90
2019-05-02T00:32:13.627Z,99.90
2019-05-02T00:34:40.924Z,99.90
2019-05-02T00:37:08.427Z,99.90
2019-05-02T00:39:36.006Z,99.90
2019-05-02T00:42:12.410Z,99.90
2019-05-02T00:44:33.165Z,99.90
2019-05-02T00:47:10.984Z,99.90
2019-05-02T00:49:37.412Z,99.90
2019-05-02T00:52:04.642Z,99.90
2019-05-02T00:54:32.536Z,99.90
2019-05-02T00:57:00.031Z,99.90
2019-05-02T00:59:27.847Z,99.90
2019-05-02T01:02:17.378Z,99.90
2019-05-02T01:04:46.121Z,99.90
2019-05-02T01:07:13.639Z,99.90
2019-05-02T01:09:42.187Z,99.90
2019-05-02T01:12:10.308Z,99.90
2019-05-02T01:14:37.577Z,99.90
2019-05-02T01:17:05.080Z,99.90
2019-05-02T01:19:32.585Z,99.90
2019-05-02T01:22:00.056Z,99.90
2019-05-02T01:24:28.140Z,99.90
2019-05-02T01:27:13.492Z,99.90
2019-05-02T01:29:48.557Z,99.90
2019-05-02T01:32:30.033Z,99.90
2019-05-02T01:35:26.900Z,99.90
2019-05-02T01:38:14.124Z,99.90
2019-05-02T01:40:42.035Z,99.90
2019-05-02T01:43:25.786Z,99.90
2019-05-02T01:45:53.368Z,99.90
2019-05-02T01:48:20.897Z,99.90
2019-05-02T01:50:48.259Z,99.90
2019-05-02T01:53:15.607Z,99.90
2019-05-02T01:55:43.201Z,99.90
2019-05-02T01:58:10.424Z,99.90
2019-05-02T02:00:40.833Z,99.90
2019-05-02T02:03:09.143Z,99.90
2019-05-02T02:05:36.416Z,99.90
2019-05-02T02:08:03.908Z,99.90
2019-05-02T02:10:31.268Z,99.90
2019-05-02T02:13:04.602Z,99.90
2019-05-02T02:15:29.046Z,99.90
2019-05-02T02:17:57.290Z,99.90
2019-05-02T02:20:27.007Z,99.90
2019-05-02T02:23:15.232Z,99.90
2019-05-02T02:25:49.319Z,99.90
2019-05-02T02:28:16.807Z,99.90
2019-05-02T02:30:44.152Z,99.90
2019-05-02T02:33:11.364Z,99.90
2019-05-02T02:35:49.615Z,99.90
2019-05-02T02:38:08.018Z,99.90
2019-05-02T02:40:35.656Z,99.90
2019-05-02T02:43:12.676Z,99.90
2019-05-02T02:45:51.925Z,99.90
2019-05-02T02:48:16.451Z,99.90
2019-05-02T02:50:45.238Z,99.90
2019-05-02T02:53:18.172Z,99.90
2019-05-02T02:55:43.958Z,99.90
2019-05-02T02:58:11.183Z,99.90
2019-05-02T03:00:41.466Z,99.90
2019-05-02T03:03:07.578Z,99.90
2019-05-02T03:05:34.978Z,99.90
2019-05-02T03:08:05.428Z,99.90
2019-05-02T03:10:31.657Z,99.90
2019-05-02T03:13:21.838Z,99.90
2019-05-02T03:15:50.191Z,99.90
2019-05-02T03:18:17.474Z,99.90
2019-05-02T03:20:44.830Z,99.90
2019-05-02T03:23:15.262Z,99.90
2019-05-02T03:25:50.405Z,99.90
2019-05-02T03:28:17.444Z,99.90
2019-05-02T03:30:40.550Z,99.90
2019-05-02T03:33:11.425Z,99.90
2019-05-02T03:35:43.820Z,99.90
2019-05-02T03:38:06.173Z,99.90
2019-05-02T03:40:39.190Z,99.90
2019-05-02T03:43:02.565Z,99.90
2019-05-02T03:45:32.217Z,99.90
2019-05-02T03:48:00.559Z,99.90
2019-05-02T03:50:32.859Z,99.90
2019-05-02T03:52:57.146Z,99.90
2019-05-02T03:55:30.933Z,99.90
2019-05-02T03:57:53.722Z,99.90
2019-05-02T04:00:24.109Z,99.90
2019-05-02T04:02:58.980Z,99.90
2019-05-02T04:05:19.562Z,99.90
2019-05-02T04:07:46.816Z,99.90
2019-05-02T04:10:21.329Z,99.90
2019-05-02T04:12:53.171Z,99.90
2019-05-02T04:15:18.537Z,99.90
2019-05-02T04:17:46.397Z,99.90
2019-05-02T04:20:13.623Z,99.90
2019-05-02T04:22:42.813Z,99.90
2019-05-02T04:25:09.994Z,99.90
2019-05-02T04:27:37.350Z,99.90
2019-05-02T04:30:11.217Z,99.90
2019-05-02T04:32:34.309Z,99.90
2019-05-02T04:35:01.537Z,99.90
2019-05-02T04:37:34.186Z,99.90
2019-05-02T04:40:01.311Z,99.90
2019-05-02T04:42:29.397Z,99.90
2019-05-02T04:45:14.174Z,99.90
2019-05-02T04:47:25.409Z,99.90
2019-05-02T04:49:52.677Z,99.90
2019-05-02T04:52:21.302Z,99.90
2019-05-02T04:54:49.058Z,99.90
2019-05-02T04:57:18.639Z,99.90
2019-05-02T04:59:50.124Z,99.90
2019-05-02T05:02:21.270Z,99.90
2019-05-02T05:04:48.695Z,99.90
2019-05-02T05:07:13.839Z,99.90
2019-05-02T05:09:50.019Z,99.90
2019-05-02T05:12:10.227Z,99.90
2019-05-02T05:14:39.434Z,99.90
2019-05-02T05:17:07.997Z,99.90
2019-05-02T05:19:37.327Z,99.90
2019-05-02T05:22:06.291Z,99.90
2019-05-02T05:24:44.823Z,99.90
2019-05-02T05:27:13.405Z,99.90
2019-05-02T05:29:41.784Z,99.90
2019-05-02T05:32:10.166Z,99.90
2019-05-02T05:34:38.021Z,99.90
2019-05-02T05:37:09.370Z,99.90
2019-05-02T05:39:34.907Z,99.90
2019-05-02T05:42:02.181Z,99.90
2019-05-02T05:44:32.552Z,99.90
2019-05-02T05:46:58.641Z,99.90
2019-05-02T05:49:28.087Z,99.90
2019-05-02T05:52:02.075Z,99.90
2019-05-02T05:54:25.154Z,99.90
2019-05-02T05:56:52.720Z,99.90
2019-05-02T05:59:22.335Z,99.90
2019-05-02T06:01:51.613Z,99.90
2019-05-02T06:04:23.539Z,99.90
2019-05-02T06:06:48.142Z,99.90
2019-05-02T06:09:15.848Z,99.90
2019-05-02T06:11:43.386Z,99.90
2019-05-02T06:14:10.723Z,99.90
2019-05-02T06:16:38.503Z,99.90
2019-05-02T06:19:06.027Z,99.90
2019-05-02T06:21:33.840Z,99.90
2019-05-02T06:24:01.152Z,99.90
2019-05-02T06:26:28.384Z,99.90
2019-05-02T06:28:55.760Z,99.90
2019-05-02T06:31:22.989Z,99.90
2019-05-02T06:33:50.264Z,99.90
2019-05-02T06:36:17.743Z,99.90
2019-05-02T06:38:45.387Z,99.90
2019-05-02T06:41:16.169Z,99.90
2019-05-02T06:43:46.704Z,99.90
2019-05-02T06:46:16.281Z,99.90
2019-05-02T06:48:40.380Z,99.90
2019-05-02T06:51:10.961Z,99.90
2019-05-02T06:53:41.309Z,99.90
2019-05-02T06:56:07.945Z,99.90
2019-05-02T06:58:37.193Z,99.90
2019-05-02T07:01:05.380Z,99.90
2019-05-02T07:03:32.700Z,99.90
2019-05-02T07:06:02.712Z,99.90
2019-05-02T07:08:29.586Z,99.90
2019-05-02T07:11:01.423Z,99.90
2019-05-02T07:13:26.407Z,99.90
2019-05-02T07:16:16.193Z,99.90
2019-05-02T07:18:47.400Z,99.90
2019-05-02T07:21:17.339Z,99.90
2019-05-02T07:23:44.041Z,99.90
2019-05-02T07:26:15.544Z,99.90
2019-05-02T07:28:45.751Z,99.90
2019-05-02T07:31:12.035Z,99.90
2019-05-02T07:33:38.999Z,99.90
2019-05-02T07:36:06.224Z,99.90
2019-05-02T07:38:33.445Z,99.90
2019-05-02T07:41:00.740Z,99.90
2019-05-02T07:43:28.279Z,99.90
2019-05-02T07:45:55.828Z,99.90
2019-05-02T07:48:23.304Z,99.90
2019-05-02T07:50:50.907Z,99.90
2019-05-02T07:53:18.395Z,99.90
2019-05-02T07:55:45.709Z,99.90
2019-05-02T07:58:12.937Z,99.90
2019-05-02T08:00:40.183Z,99.90
2019-05-02T08:03:07.428Z,99.90
2019-05-02T08:05:34.755Z,99.90
2019-05-02T08:08:02.248Z,99.90
2019-05-02T08:10:29.620Z,99.90
2019-05-02T08:12:56.853Z,99.90
2019-05-02T08:15:24.603Z,99.90
2019-05-02T08:17:53.815Z,99.90
2019-05-02T08:20:21.429Z,99.90
2019-05-02T08:22:50.195Z,99.90
2019-05-02T08:25:18.008Z,99.90
2019-05-02T08:27:53.273Z,99.90
2019-05-02T08:30:24.321Z,99.90
2019-05-02T08:32:51.859Z,99.90
2019-05-02T08:35:19.356Z,99.90
2019-05-02T08:37:46.581Z,99.90
2019-05-02T08:40:14.077Z,99.90
2019-05-02T08:42:41.296Z,99.90
2019-05-02T08:45:09.112Z,99.90
2019-05-02T08:47:36.582Z,99.90
2019-05-02T08:50:04.300Z,99.90
2019-05-02T08:52:31.536Z,99.90
2019-05-02T08:54:59.185Z,99.90
2019-05-02T08:57:30.052Z,99.90
2019-05-02T09:00:00.183Z,99.90
2019-05-02T09:02:27.231Z,99.90
2019-05-02T09:04:58.900Z,99.90
2019-05-02T09:07:24.171Z,99.90
2019-05-02T09:09:51.837Z,99.90
2019-05-02T09:12:20.266Z,99.90
2019-05-02T09:14:47.987Z,99.90
2019-05-02T09:17:16.643Z,99.90
2019-05-02T09:19:44.709Z,99.90
2019-05-02T09:22:13.177Z,99.90
2019-05-02T09:24:43.064Z,99.90
2019-05-02T09:27:11.841Z,99.90
2019-05-02T09:29:44.437Z,99.90
2019-05-02T09:32:08.621Z,99.90
2019-05-02T09:34:36.097Z,99.90
2019-05-02T09:37:03.736Z,99.90
2019-05-02T09:39:32.683Z,99.90
2019-05-02T09:42:02.012Z,99.90
2019-05-02T09:44:29.227Z,99.90
2019-05-02T09:46:57.116Z,99.90
2019-05-02T09:49:24.823Z,99.90
2019-05-02T09:51:59.393Z,99.90
2019-05-02T09:54:23.202Z,99.90
2019-05-02T09:56:52.346Z,99.90
2019-05-02T09:59:29.193Z,99.90
2019-05-02T10:01:52.577Z,99.90
2019-05-02T10:04:22.308Z,99.90
2019-05-02T10:06:49.312Z,99.90
2019-05-02T10:09:18.648Z,99.90
2019-05-02T10:11:46.000Z,99.90
2019-05-02T10:14:13.497Z,99.90
2019-05-02T10:16:42.635Z,99.90
2019-05-02T10:19:11.463Z,99.90
2019-05-02T10:21:39.459Z,99.90
2019-05-02T10:24:06.688Z,99.90
2019-05-02T10:26:34.220Z,99.90
2019-05-02T10:29:02.017Z,99.90
2019-05-02T10:31:35.792Z,99.90
2019-05-02T10:33:58.906Z,99.90
2019-05-02T10:36:26.156Z,99.90
2019-05-02T10:38:58.875Z,99.90
2019-05-02T10:41:23.151Z,99.90
2019-05-02T10:43:52.006Z,99.90
2019-05-02T10:46:27.856Z,99.90
2019-05-02T10:49:02.239Z,99.90
2019-05-02T10:51:33.765Z,99.90
2019-05-02T10:54:02.251Z,99.90
2019-05-02T10:56:29.696Z,99.90
2019-05-02T10:58:57.143Z,99.90
2019-05-02T11:01:24.747Z,99.90
2019-05-02T11:03:52.600Z,99.90
2019-05-02T11:06:22.084Z,99.90
2019-05-02T11:08:49.172Z,99.90
2019-05-02T11:11:16.643Z,99.90
2019-05-02T11:14:12.597Z,99.90
2019-05-02T11:16:52.488Z,99.90
2019-05-02T11:19:24.344Z,99.90
2019-05-02T11:21:56.330Z,99.90
2019-05-02T11:24:22.461Z,99.90
2019-05-02T11:26:50.156Z,99.90
2019-05-02T11:29:17.384Z,99.90
2019-05-02T11:31:44.668Z,99.90
2019-05-02T11:34:12.455Z,99.90
2019-05-02T11:36:41.550Z,99.90
2019-05-02T11:39:18.582Z,99.90
2019-05-02T11:41:38.515Z,99.90
2019-05-02T11:44:05.888Z,97.80
2019-05-02T11:46:37.494Z,98.00
2019-05-02T11:49:02.681Z,97.40
2019-05-02T11:51:30.008Z,98.50
2019-05-02T11:53:59.321Z,97.80
2019-05-02T11:56:26.505Z,97.80
2019-05-02T11:58:53.804Z,96.80
2019-05-02T12:01:34.566Z,95.60
2019-05-02T12:03:52.489Z,94.90
2019-05-02T12:06:22.319Z,94.80
2019-05-02T12:08:49.598Z,94.10
2019-05-02T12:11:17.818Z,93.30
2019-05-02T12:13:47.221Z,90.70
2019-05-02T12:16:14.907Z,90.60
2019-05-02T12:18:42.791Z,89.40
2019-05-02T12:21:12.056Z,85.30
2019-05-02T12:23:39.354Z,83.80
2019-05-02T12:26:07.521Z,84.90
2019-05-02T12:28:35.016Z,85.40
2019-05-02T12:31:03.311Z,84.70
2019-05-02T12:33:34.613Z,85.00
2019-05-02T12:36:02.606Z,81.40
2019-05-02T12:38:30.083Z,78.60
2019-05-02T12:40:58.029Z,79.70
2019-05-02T12:43:25.611Z,79.00
2019-05-02T12:45:53.031Z,76.60
2019-05-02T12:48:21.997Z,78.40
2019-05-02T12:50:49.491Z,82.20
2019-05-02T12:53:17.037Z,81.20
2019-05-02T12:55:44.508Z,80.40
2019-05-02T12:58:12.513Z,76.80
2019-05-02T13:00:40.070Z,76.60
2019-05-02T13:03:17.049Z,77.70
2019-05-02T13:05:44.273Z,75.40
2019-05-02T13:08:12.238Z,76.70
2019-05-02T13:11:06.725Z,73.50
2019-05-02T13:13:34.583Z,74.70
2019-05-02T13:16:03.837Z,74.80
2019-05-02T13:18:34.810Z,73.00
2019-05-02T13:21:02.423Z,73.90
2019-05-02T13:23:49.185Z,76.90
2019-05-02T13:26:21.872Z,77.40
2019-05-02T13:28:46.652Z,79.90
2019-05-02T13:31:27.368Z,76.80
2019-05-02T13:34:15.091Z,77.70
2019-05-02T13:36:44.831Z,76.40
2019-05-02T13:39:21.994Z,73.30
2019-05-02T13:41:49.404Z,75.10
2019-05-02T13:44:21.826Z,73.20
2019-05-02T13:46:49.221Z,76.60
2019-05-02T13:49:16.481Z,76.00
2019-05-02T13:51:43.700Z,79.50
2019-05-02T13:54:12.543Z,78.10
2019-05-02T13:56:49.726Z,76.60
2019-05-02T13:59:18.116Z,79.60
2019-05-02T14:01:47.587Z,83.20
2019-05-02T14:04:15.191Z,82.40
2019-05-02T14:06:42.515Z,86.10
2019-05-02T14:09:45.874Z,83.10
2019-05-02T14:12:35.923Z,82.10
2019-05-02T14:15:04.256Z,84.70
2019-05-02T14:17:32.640Z,84.10
2019-05-02T14:20:08.553Z,82.50
2019-05-02T14:22:29.592Z,84.90
2019-05-02T14:24:57.167Z,88.30
2019-05-02T14:27:24.392Z,88.10
2019-05-02T14:29:52.501Z,88.60
2019-05-02T14:32:25.705Z,87.00
2019-05-02T14:35:07.056Z,85.10
2019-05-02T14:37:34.530Z,87.80
2019-05-02T14:40:08.823Z,90.40
2019-05-02T14:42:36.313Z,90.60
2019-05-02T14:45:13.170Z,90.80
2019-05-02T14:47:33.125Z,90.00
2019-05-02T14:50:02.064Z,89.40
2019-05-02T14:52:29.903Z,91.30
2019-05-02T14:54:57.399Z,91.20
2019-05-02T14:57:27.164Z,91.80
2019-05-02T14:59:59.200Z,91.00
2019-05-02T15:02:44.990Z,91.70
2019-05-02T15:05:12.813Z,91.80
2019-05-02T15:07:42.067Z,91.00
2019-05-02T15:10:09.489Z,91.70
2019-05-02T15:12:36.979Z,92.20
2019-05-02T15:15:05.257Z,92.30
2019-05-02T15:17:37.605Z,93.10
2019-05-02T15:20:02.837Z,94.00
2019-05-02T15:22:33.088Z,93.90
2019-05-02T15:24:59.356Z,93.20
2019-05-02T15:27:39.097Z,93.40
2019-05-02T15:30:05.105Z,93.70
2019-05-02T15:32:37.284Z,93.50
2019-05-02T15:35:27.007Z,94.00
2019-05-02T15:37:56.611Z,94.00
2019-05-02T15:42:56.721Z,94.40
2019-05-02T15:45:23.938Z,94.90
2019-05-02T15:47:52.587Z,94.10
2019-05-02T15:50:21.928Z,95.00
2019-05-02T15:53:09.781Z,95.50
2019-05-02T15:55:39.566Z,96.20
2019-05-02T15:58:02.461Z,96.80
2019-05-02T16:00:34.226Z,95.90
2019-05-02T16:03:04.267Z,96.30
2019-05-02T16:05:32.006Z,96.00
2019-05-02T16:08:05.324Z,96.20
2019-05-02T16:10:31.611Z,96.40
2019-05-02T16:12:59.557Z,97.10
2019-05-02T16:15:26.952Z,97.00
2019-05-02T16:17:56.943Z,98.10
2019-05-02T16:20:34.588Z,97.80
2019-05-02T16:23:02.059Z,98.40
2019-05-02T16:25:29.207Z,97.60
2019-05-02T16:27:57.573Z,97.40
2019-05-02T16:30:25.698Z,98.50
2019-05-02T16:32:57.998Z,99.40
2019-05-02T16:35:26.340Z,99.30
2019-05-02T16:37:56.034Z,99.90
2019-05-02T16:40:29.929Z,99.90
2019-05-02T16:42:52.783Z,99.90
2019-05-02T16:45:22.062Z,99.90
2019-05-02T16:47:49.699Z,99.90
2019-05-02T16:50:18.806Z,99.90
2019-05-02T16:52:47.463Z,99.90
2019-05-02T16:55:20.830Z,99.90
2019-05-02T16:57:45.796Z,99.90
2019-05-02T17:00:17.103Z,99.90
2019-05-02T17:02:46.367Z,99.90
2019-05-02T17:05:13.773Z,99.90
2019-05-02T17:07:59.132Z,99.90
2019-05-02T17:10:34.976Z,99.90
2019-05-02T17:13:02.756Z,99.90
2019-05-02T17:15:35.181Z,99.90
2019-05-02T17:18:05.041Z,99.90
2019-05-02T17:20:31.920Z,99.90
2019-05-02T17:23:05.164Z,99.90
2019-05-02T17:25:28.824Z,99.90
2019-05-02T17:28:01.696Z,99.90
2019-05-02T17:30:25.514Z,99.90
2019-05-02T17:32:53.066Z,99.90
2019-05-02T17:35:22.114Z,99.90
2019-05-02T17:37:50.486Z,99.90
2019-05-02T17:40:24.455Z,99.90
2019-05-02T17:42:48.235Z,99.90
2019-05-02T17:45:15.919Z,99.90
2019-05-02T17:47:43.540Z,99.90
2019-05-02T17:50:29.253Z,99.90
2019-05-02T17:53:01.047Z,99.90
2019-05-02T17:55:26.669Z,99.90
2019-05-02T17:57:53.932Z,99.90
2019-05-02T18:00:23.812Z,99.90
2019-05-02T18:02:51.738Z,99.90
2019-05-02T18:05:19.379Z,99.90
2019-05-02T18:07:47.471Z,99.90
2019-05-02T18:10:21.905Z,99.90
2019-05-02T18:12:47.253Z,99.90
2019-05-02T18:15:14.951Z,99.90
2019-05-02T18:17:42.750Z,99.90
2019-05-02T18:20:12.294Z,99.90
2019-05-02T18:22:39.862Z,99.90
2019-05-02T18:25:08.755Z,99.90
2019-05-02T18:27:36.012Z,99.90
2019-05-02T18:30:04.328Z,99.90
2019-05-02T18:32:33.569Z,99.90
2019-05-02T18:35:04.264Z,99.90
2019-05-02T18:37:32.484Z,99.90
2019-05-02T18:39:59.893Z,99.90
2019-05-02T18:42:27.138Z,99.90
2019-05-02T18:44:54.565Z,99.90
2019-05-02T18:47:24.792Z,99.90
2019-05-02T18:49:53.817Z,99.90
2019-05-02T18:52:22.630Z,99.90
2019-05-02T18:54:51.658Z,99.90
2019-05-02T18:57:24.446Z,99.90
2019-05-02T18:59:52.053Z,99.90
2019-05-02T19:02:17.734Z,99.90
2019-05-02T19:04:45.277Z,99.90
2019-05-02T19:07:15.739Z,99.90
2019-05-02T19:09:50.894Z,99.90
2019-05-02T19:12:19.706Z,99.90
2019-05-02T19:14:41.992Z,99.90
2019-05-02T19:17:09.720Z,99.90
2019-05-02T19:19:37.113Z,99.90
2019-05-02T19:22:07.446Z,99.90
2019-05-02T19:24:36.467Z,99.90
2019-05-02T19:27:02.832Z,99.90
2019-05-02T19:29:31.837Z,99.90
2019-05-02T19:31:59.555Z,99.90
2019-05-02T19:34:27.105Z,99.90
2019-05-02T19:36:58.157Z,99.90
2019-05-02T19:39:26.901Z,99.90
2019-05-02T19:41:54.391Z,99.90
2019-05-02T19:44:29.023Z,99.90
2019-05-02T19:46:51.966Z,99.90
2019-05-02T19:49:21.586Z,99.90
2019-05-02T19:51:50.632Z,99.90
2019-05-02T19:54:18.001Z,99.90
2019-05-02T19:56:47.423Z,99.90
2019-05-02T19:59:16.812Z,99.90
2019-05-02T20:01:44.020Z,99.90
2019-05-02T20:04:11.799Z,99.90
2019-05-02T20:06:39.206Z,99.90
2019-05-02T20:09:08.461Z,99.90
2019-05-02T20:11:36.025Z,99.90
2019-05-02T20:14:09.111Z,99.90
2019-05-02T20:16:45.702Z,99.90
2019-05-02T20:19:12.438Z,99.90
2019-05-02T20:21:48.505Z,99.90
2019-05-02T20:24:19.462Z,99.90
2019-05-02T20:26:46.682Z,99.90
2019-05-02T20:29:14.296Z,99.90
2019-05-02T20:31:41.516Z,99.90
2019-05-02T20:34:09.011Z,99.90
2019-05-02T20:36:36.308Z,99.90
2019-05-02T20:39:06.763Z,99.90
2019-05-02T20:41:33.997Z,99.90
2019-05-02T20:44:02.653Z,99.90
2019-05-02T20:46:30.108Z,99.90
2019-05-02T20:48:57.583Z,99.90
2019-05-02T20:51:25.085Z,99.90
2019-05-02T20:53:52.743Z,99.90
2019-05-02T20:56:20.297Z,99.90
2019-05-02T20:58:47.795Z,99.90
2019-05-02T21:01:15.011Z,99.90
2019-05-02T21:03:42.722Z,99.90
2019-05-02T21:06:40.050Z,99.90
2019-05-02T21:09:09.267Z,99.90
2019-05-02T21:11:36.986Z,99.90
2019-05-02T21:14:04.554Z,99.90
2019-05-02T21:16:32.249Z,99.90
2019-05-02T21:18:59.836Z,99.90
2019-05-02T21:21:27.337Z,99.90
2019-05-02T21:23:54.816Z,99.90
2019-05-02T21:26:22.180Z,99.90
2019-05-02T21:28:49.784Z,99.90
2019-05-02T21:31:17.331Z,99.90
2019-05-02T21:33:44.559Z,99.90
2019-05-02T21:36:12.161Z,99.90
2019-05-02T21:38:39.448Z,99.90
2019-05-02T21:41:09.767Z,99.90
2019-05-02T21:43:36.983Z,99.90
2019-05-02T21:46:04.533Z,99.90
2019-05-02T21:48:32.652Z,99.90
2019-05-02T21:51:18.049Z,99.90
2019-05-02T21:54:05.047Z,99.90
2019-05-02T21:56:57.324Z,99.90
2019-05-02T21:59:24.536Z,99.90
2019-05-02T22:01:53.951Z,99.90
2019-05-02T22:04:22.472Z,99.90
2019-05-02T22:06:52.111Z,99.90
2019-05-02T22:09:20.092Z,99.90
2019-05-02T22:11:47.339Z,99.90
2019-05-02T22:14:14.551Z,99.90
2019-05-02T22:16:42.108Z,99.90
2019-05-02T22:19:09.574Z,99.90
2019-05-02T22:21:37.068Z,99.90
2019-05-02T22:24:11.016Z,99.90
2019-05-02T22:26:33.752Z,99.90
2019-05-02T22:29:01.927Z,99.90
2019-05-02T22:31:29.435Z,99.90
2019-05-02T22:33:56.666Z,99.90
2019-05-02T22:36:23.911Z,99.90
2019-05-02T22:38:59.135Z,99.90
2019-05-02T22:41:26.711Z,99.90
2019-05-02T22:43:53.937Z,99.90
2019-05-02T22:46:39.101Z,99.90
2019-05-02T22:49:06.572Z,99.90
2019-05-02T22:51:33.973Z,99.90
2019-05-02T22:54:02.931Z,99.90
2019-05-02T22:56:31.707Z,99.90
2019-05-02T22:58:59.044Z,99.90
2019-05-02T23:01:26.331Z,99.90
2019-05-02T23:03:53.845Z,99.90
2019-05-02T23:06:21.091Z,99.90
2019-05-02T23:08:48.320Z,99.90
2019-05-02T23:11:15.834Z,99.90
2019-05-02T23:13:43.305Z,99.90
2019-05-02T23:16:10.557Z,99.90
2019-05-02T23:18:37.785Z,99.90
2019-05-02T23:21:05.511Z,99.90
2019-05-02T23:23:32.983Z,99.90
2019-05-02T23:26:13.062Z,99.90
2019-05-02T23:28:42.372Z,99.90
2019-05-02T23:31:11.441Z,99.90
2019-05-02T23:33:56.995Z,99.90
2019-05-02T23:36:24.316Z,99.90
2019-05-02T23:38:52.243Z,99.90
2019-05-02T23:41:19.592Z,99.90
2019-05-02T23:43:46.841Z,99.90
2019-05-02T23:46:14.114Z,99.90
2019-05-02T23:48:41.953Z,99.90
2019-05-02T23:51:09.542Z,99.90
2019-05-02T23:53:36.766Z,99.90
2019-05-02T23:56:03.997Z,99.90
2019-05-02T23:58:32.023Z,99.90
